createdAt,value
2022-09-20T00:02:08.755Z,95.49
2022-09-20T00:04:38.478Z,95.26
2022-09-20T00:07:08.159Z,94.89
2022-09-20T00:09:37.855Z,94.18
2022-09-20T00:12:10.644Z,95.13
2022-09-20T00:14:40.233Z,96.06
2022-09-20T00:17:10.645Z,97.24
2022-09-20T00:19:40.295Z,97.02
2022-09-20T00:22:09.975Z,98.06
2022-09-20T00:24:39.568Z,97.18
2022-09-20T00:27:12.027Z,97.14
2022-09-20T00:29:42.216Z,96.01
2022-09-20T00:32:11.893Z,95.38
2022-09-20T00:34:53.974Z,95.72
2022-09-20T00:37:23.605Z,96.38
2022-09-20T00:39:53.228Z,96.47
2022-09-20T00:42:30.273Z,95.14
2022-09-20T00:45:01.173Z,97.77
2022-09-20T00:47:37.257Z,98.63
2022-09-20T00:50:17.063Z,99.08
2022-09-20T00:52:49.009Z,97.03
2022-09-20T00:55:19.743Z,96.06
2022-09-20T00:57:52.359Z,94.96
2022-09-20T01:00:22.262Z,98.64
2022-09-20T01:02:58.206Z,97.11
2022-09-20T01:05:31.438Z,95.93
2022-09-20T01:08:01.186Z,96.38
2022-09-20T01:10:30.941Z,95.38
2022-09-20T01:13:03.876Z,96.61
2022-09-20T01:15:36.062Z,98.17
2022-09-20T01:18:06.626Z,97.09
2022-09-20T01:20:39.126Z,96.85
2022-09-20T01:23:31.297Z,96.75
2022-09-20T01:26:30.015Z,96.07
2022-09-20T01:29:14.146Z,93.74
2022-09-20T01:31:49.620Z,95.27
2022-09-20T01:34:23.924Z,94.68
2022-09-20T01:36:58.073Z,94.74
2022-09-20T01:39:38.508Z,92.85
2022-09-20T01:42:10.521Z,93.61
2022-09-20T01:44:52.296Z,96.20
2022-09-20T01:47:34.063Z,93.91
2022-09-20T01:50:14.821Z,92.87
2022-09-20T01:53:11.636Z,93.74
2022-09-20T01:56:07.803Z,94.46
2022-09-20T01:59:23.302Z,93.85
2022-09-20T02:02:24.652Z,92.82
2022-09-20T02:05:35.930Z,93.31
2022-09-20T02:08:39.190Z,94.74
2022-09-20T02:11:15.146Z,94.11
2022-09-20T02:14:09.019Z,96.35
2022-09-20T02:16:51.465Z,96.14
2022-09-20T02:19:44.235Z,94.70
2022-09-20T02:22:27.006Z,94.81
2022-09-20T02:25:05.339Z,93.20
2022-09-20T02:27:43.955Z,92.52
2022-09-20T02:30:24.159Z,94.26
2022-09-20T02:33:20.522Z,94.18
2022-09-20T02:36:08.486Z,93.95
2022-09-20T02:38:52.643Z,94.19
2022-09-20T02:41:43.356Z,94.75
2022-09-20T02:44:24.947Z,95.56
2022-09-20T02:47:02.228Z,94.31
2022-09-20T02:49:40.847Z,94.59
2022-09-20T02:52:23.439Z,94.98
2022-09-20T02:55:00.474Z,94.93
2022-09-20T02:57:45.583Z,93.31
2022-09-20T03:00:24.605Z,93.21
2022-09-20T03:03:09.203Z,92.39
2022-09-20T03:05:53.845Z,91.58
2022-09-20T03:08:50.592Z,91.62
2022-09-20T03:11:30.320Z,92.17
2022-09-20T03:14:14.128Z,92.94
2022-09-20T03:16:54.469Z,92.66
2022-09-20T03:19:47.249Z,92.69
2022-09-20T03:22:26.502Z,92.89
2022-09-20T03:25:18.885Z,92.66
2022-09-20T03:28:01.858Z,93.58
2022-09-20T03:30:52.783Z,92.86
2022-09-20T03:33:36.673Z,93.23
2022-09-20T03:36:23.115Z,92.69
2022-09-20T03:39:18.725Z,92.24
2022-09-20T03:42:11.289Z,92.05
2022-09-20T03:44:58.011Z,92.05
2022-09-20T03:47:47.017Z,92.14
2022-09-20T03:50:43.032Z,91.35
2022-09-20T03:53:29.048Z,91.13
2022-09-20T03:56:30.415Z,90.33
2022-09-20T03:59:30.465Z,90.00
2022-09-20T04:02:20.562Z,89.62
2022-09-20T04:04:56.524Z,89.63
2022-09-20T04:07:32.469Z,89.74
2022-09-20T04:10:36.516Z,89.76
2022-09-20T04:13:34.556Z,89.52
2022-09-20T04:16:18.496Z,90.51
2022-09-20T04:18:56.995Z,90.31
2022-09-20T04:21:34.831Z,90.07
2022-09-20T04:24:12.544Z,89.64
2022-09-20T04:26:46.905Z,89.50
2022-09-20T04:29:33.800Z,89.13
2022-09-20T04:32:19.099Z,89.89
2022-09-20T04:35:09.062Z,90.01
2022-09-20T04:37:41.253Z,89.57
2022-09-20T04:40:25.650Z,89.33
2022-09-20T04:43:28.469Z,89.39
2022-09-20T04:46:33.148Z,89.25
2022-09-20T04:49:35.281Z,89.92
2022-09-20T04:52:35.983Z,90.87
2022-09-20T04:55:38.065Z,91.12
2022-09-20T04:58:43.410Z,90.85
2022-09-20T05:01:42.713Z,90.34
2022-09-20T05:05:02.038Z,89.37
2022-09-20T05:08:10.960Z,89.85
2022-09-20T05:11:06.687Z,90.04
2022-09-20T05:13:49.102Z,89.60
2022-09-20T05:16:24.684Z,89.34
2022-09-20T05:19:11.038Z,89.62
2022-09-20T05:22:02.385Z,89.93
2022-09-20T05:24:56.753Z,89.83
2022-09-20T05:27:43.510Z,89.71
2022-09-20T05:30:23.546Z,90.12
2022-09-20T05:33:01.019Z,89.35
2022-09-20T05:35:36.462Z,89.98
2022-09-20T05:38:16.734Z,89.35
2022-09-20T05:41:10.762Z,89.24
2022-09-20T05:43:53.071Z,90.24
2022-09-20T05:46:36.343Z,90.95
2022-09-20T05:49:16.790Z,92.15
2022-09-20T05:52:02.913Z,92.51
2022-09-20T05:55:00.101Z,91.99
2022-09-20T05:57:42.710Z,91.84
2022-09-20T06:00:17.339Z,92.53
2022-09-20T06:02:57.096Z,92.55
2022-09-20T06:05:36.575Z,92.08
2022-09-20T06:08:33.658Z,91.39
2022-09-20T06:11:24.124Z,92.03
2022-09-20T06:14:16.044Z,89.72
2022-09-20T06:16:54.443Z,90.42
2022-09-20T06:19:35.047Z,90.30
2022-09-20T06:22:14.565Z,89.64
2022-09-20T06:24:50.333Z,89.60
2022-09-20T06:27:26.652Z,90.03
2022-09-20T06:30:03.824Z,88.92
2022-09-20T06:32:34.788Z,88.16
2022-09-20T06:35:06.023Z,88.95
2022-09-20T06:37:59.923Z,87.82
2022-09-20T06:40:49.720Z,86.85
2022-09-20T06:43:19.530Z,85.89
2022-09-20T06:45:51.890Z,86.61
2022-09-20T06:48:21.635Z,87.80
2022-09-20T06:50:52.450Z,88.14
2022-09-20T06:53:27.603Z,89.31
2022-09-20T06:55:57.629Z,88.33
2022-09-20T06:58:27.319Z,88.01
2022-09-20T07:00:59.635Z,88.73
2022-09-20T07:03:29.321Z,88.95
2022-09-20T07:06:00.609Z,88.91
2022-09-20T07:08:30.488Z,85.40
2022-09-20T07:11:00.248Z,82.99
2022-09-20T07:13:30.148Z,81.42
2022-09-20T07:16:06.593Z,82.55
2022-09-20T07:18:37.095Z,82.95
2022-09-20T07:21:07.104Z,83.30
2022-09-20T07:23:36.836Z,84.00
2022-09-20T07:26:06.669Z,83.49
2022-09-20T07:28:37.922Z,84.27
2022-09-20T07:31:10.751Z,83.80
2022-09-20T07:33:40.478Z,84.17
2022-09-20T07:36:10.882Z,84.41
2022-09-20T07:38:40.800Z,84.25
2022-09-20T07:41:11.417Z,85.52
2022-09-20T07:43:41.963Z,84.22
2022-09-20T07:46:16.092Z,83.13
2022-09-20T07:48:45.793Z,81.77
2022-09-20T07:51:17.030Z,82.26
2022-09-20T07:53:46.712Z,81.60
2022-09-20T07:56:18.501Z,80.00
2022-09-20T07:58:52.164Z,79.60
2022-09-20T08:01:24.881Z,79.24
2022-09-20T08:03:57.170Z,79.65
2022-09-20T08:06:27.412Z,76.12
2022-09-20T08:08:58.197Z,73.46
2022-09-20T08:11:29.910Z,74.54
2022-09-20T08:14:09.463Z,75.72
2022-09-20T08:16:46.655Z,76.28
2022-09-20T08:19:19.546Z,76.58
2022-09-20T08:21:49.986Z,75.89
2022-09-20T08:24:20.314Z,72.97
2022-09-20T08:26:51.233Z,72.70
2022-09-20T08:29:21.017Z,73.13
2022-09-20T08:31:55.852Z,72.31
2022-09-20T08:34:25.479Z,71.49
2022-09-20T08:36:56.755Z,68.46
2022-09-20T08:42:25.203Z,67.64
2022-09-20T08:44:59.440Z,67.60
2022-09-20T08:47:35.502Z,68.56
2022-09-20T08:50:09.539Z,67.45
2022-09-20T08:52:42.542Z,68.81
2022-09-20T08:55:18.156Z,69.10
2022-09-20T08:57:52.135Z,69.28
2022-09-20T09:00:24.247Z,69.43
2022-09-20T09:02:58.993Z,69.84
2022-09-20T09:05:35.331Z,68.42
2022-09-20T09:08:12.122Z,66.46
2022-09-20T09:10:43.320Z,67.86
2022-09-20T09:13:23.856Z,64.54
2022-09-20T09:15:58.681Z,62.47
2022-09-20T09:18:36.214Z,63.28
2022-09-20T09:21:07.890Z,62.55
2022-09-20T09:23:44.218Z,63.40
2022-09-20T09:26:23.900Z,63.18
2022-09-20T09:29:12.324Z,65.59
2022-09-20T09:31:42.102Z,67.42
2022-09-20T09:34:31.202Z,66.39
2022-09-20T09:37:01.563Z,65.70
2022-09-20T09:39:33.173Z,63.70
2022-09-20T09:42:03.707Z,65.99
2022-09-20T09:44:35.666Z,63.79
2022-09-20T09:47:06.262Z,64.98
2022-09-20T09:49:38.570Z,65.05
2022-09-20T09:52:15.904Z,64.76
2022-09-20T09:54:50.647Z,64.56
2022-09-20T09:57:52.079Z,64.29
2022-09-20T10:00:24.109Z,64.53
2022-09-20T10:03:10.241Z,62.93
2022-09-20T10:05:56.066Z,61.75
2022-09-20T10:08:36.464Z,61.02
2022-09-20T10:11:16.598Z,58.74
2022-09-20T10:13:55.782Z,55.17
2022-09-20T10:16:35.870Z,57.50
2022-09-20T10:19:12.721Z,57.76
2022-09-20T10:21:52.940Z,58.01
2022-09-20T10:24:35.545Z,56.95
2022-09-20T10:27:34.440Z,58.69
2022-09-20T10:30:11.971Z,58.08
2022-09-20T10:32:59.972Z,56.58
2022-09-20T10:35:35.956Z,55.67
2022-09-20T10:38:19.783Z,55.13
2022-09-20T10:41:18.872Z,53.06
2022-09-20T10:44:05.137Z,50.39
2022-09-20T10:46:49.242Z,48.88
2022-09-20T10:49:35.346Z,50.06
2022-09-20T10:52:26.845Z,51.73
2022-09-20T10:55:11.582Z,54.13
2022-09-20T10:58:16.735Z,55.70
2022-09-20T11:00:53.870Z,56.56
2022-09-20T11:03:36.197Z,55.78
2022-09-20T11:06:17.721Z,57.43
2022-09-20T11:08:51.822Z,57.07
2022-09-20T11:11:26.761Z,55.83
2022-09-20T11:14:04.559Z,56.10
2022-09-20T11:16:41.979Z,56.12
2022-09-20T11:19:23.565Z,54.38
2022-09-20T11:21:58.610Z,51.25
2022-09-20T11:24:33.205Z,49.18
2022-09-20T11:27:13.849Z,48.94
2022-09-20T11:29:50.210Z,47.52
2022-09-20T11:32:28.850Z,48.15
2022-09-20T11:35:04.800Z,47.37
2022-09-20T11:37:39.395Z,45.14
2022-09-20T11:40:20.185Z,45.54
2022-09-20T11:42:54.180Z,46.10
2022-09-20T11:45:28.281Z,48.96
2022-09-20T11:48:03.147Z,49.40
2022-09-20T11:51:08.842Z,50.13
2022-09-20T11:54:08.409Z,51.26
2022-09-20T11:56:38.077Z,52.15
2022-09-20T11:59:30.351Z,52.75
2022-09-20T12:02:03.048Z,50.82
2022-09-20T12:04:36.011Z,51.20
2022-09-20T12:07:12.473Z,50.79
2022-09-20T12:09:47.199Z,51.86
2022-09-20T12:12:20.741Z,51.37
2022-09-20T12:15:01.399Z,52.31
2022-09-20T12:18:04.369Z,53.11
2022-09-20T12:21:18.937Z,52.47
2022-09-20T12:24:20.047Z,52.95
2022-09-20T12:26:51.978Z,52.40
2022-09-20T12:29:54.897Z,51.50
2022-09-20T12:32:49.321Z,51.92
2022-09-20T12:35:58.315Z,48.89
2022-09-20T12:38:37.696Z,48.66
2022-09-20T12:41:14.349Z,47.47
2022-09-20T12:44:07.126Z,46.93
2022-09-20T12:46:41.204Z,46.45
2022-09-20T12:49:49.631Z,45.61
2022-09-20T12:52:45.297Z,47.15
2022-09-20T12:55:30.090Z,49.22
2022-09-20T12:58:03.884Z,50.03
2022-09-20T13:00:42.878Z,50.92
2022-09-20T13:03:28.584Z,51.41
2022-09-20T13:06:28.571Z,53.36
2022-09-20T13:09:10.587Z,56.50
2022-09-20T13:11:44.653Z,52.95
2022-09-20T13:14:17.485Z,51.95
2022-09-20T13:16:55.231Z,52.41
2022-09-20T13:19:28.871Z,53.30
2022-09-20T13:22:06.126Z,53.79
2022-09-20T13:24:41.865Z,54.65
2022-09-20T13:27:19.848Z,53.79
2022-09-20T13:29:49.829Z,51.90
2022-09-20T13:32:20.454Z,52.39
2022-09-20T13:35:09.662Z,51.77
2022-09-20T13:37:49.552Z,50.12
2022-09-20T13:40:21.294Z,52.65
2022-09-20T13:43:12.989Z,52.40
2022-09-20T13:45:45.210Z,51.40
2022-09-20T13:48:15.157Z,49.76
2022-09-20T13:50:48.040Z,51.50
2022-09-20T13:53:40.525Z,49.78
2022-09-20T13:56:14.509Z,50.87
2022-09-20T13:58:45.409Z,51.65
2022-09-20T14:01:26.854Z,52.96
2022-09-20T14:03:56.881Z,53.65
2022-09-20T14:06:29.967Z,52.21
2022-09-20T14:09:10.417Z,51.97
2022-09-20T14:11:42.603Z,52.84
2022-09-20T14:14:16.445Z,54.04
2022-09-20T14:16:49.478Z,53.72
2022-09-20T14:19:21.445Z,54.54
2022-09-20T14:21:51.557Z,55.91
2022-09-20T14:24:35.654Z,55.96
2022-09-20T14:27:09.554Z,57.13
2022-09-20T14:29:44.223Z,58.14
2022-09-20T14:32:27.521Z,59.84
2022-09-20T14:35:05.019Z,60.04
2022-09-20T14:37:38.146Z,61.02
2022-09-20T14:40:22.333Z,61.31
2022-09-20T14:42:55.365Z,61.42
2022-09-20T14:45:28.778Z,61.64
2022-09-20T14:48:06.685Z,61.08
2022-09-20T14:50:42.304Z,61.52
2022-09-20T14:53:29.664Z,61.25
2022-09-20T14:56:13.460Z,60.62
2022-09-20T14:59:05.755Z,60.87
2022-09-20T15:01:36.357Z,61.23
2022-09-20T15:04:11.026Z,61.54
2022-09-20T15:06:43.119Z,61.49
2022-09-20T15:09:14.888Z,62.87
2022-09-20T15:11:47.088Z,61.34
2022-09-20T15:14:17.025Z,61.80
2022-09-20T15:16:46.861Z,60.91
2022-09-20T15:19:16.923Z,60.94
2022-09-20T15:21:46.785Z,60.38
2022-09-20T15:24:17.956Z,61.10
2022-09-20T15:26:50.215Z,60.60
2022-09-20T15:29:21.034Z,61.08
2022-09-20T15:31:51.571Z,60.66
2022-09-20T15:34:21.272Z,61.52
2022-09-20T15:36:51.629Z,61.60
2022-09-20T15:39:22.289Z,60.58
2022-09-20T15:41:55.279Z,61.62
2022-09-20T15:44:25.060Z,60.72
2022-09-20T15:46:55.233Z,60.48
2022-09-20T15:49:24.892Z,58.65
2022-09-20T15:51:54.605Z,59.92
2022-09-20T15:54:26.083Z,60.20
2022-09-20T15:56:58.565Z,58.20
2022-09-20T15:59:29.432Z,58.70
2022-09-20T16:01:59.709Z,59.49
2022-09-20T16:04:30.129Z,60.16
2022-09-20T16:06:59.840Z,59.38
2022-09-20T16:09:29.502Z,57.58
2022-09-20T16:12:01.794Z,57.20
2022-09-20T16:14:31.397Z,57.06
2022-09-20T16:17:01.083Z,57.70
2022-09-20T16:19:30.714Z,57.21
2022-09-20T16:22:00.545Z,56.49
2022-09-20T16:24:31.927Z,57.25
2022-09-20T16:27:06.297Z,57.15
2022-09-20T16:29:36.927Z,58.09
2022-09-20T16:32:06.796Z,57.86
2022-09-20T16:34:38.248Z,57.90
2022-09-20T16:37:10.111Z,59.27
2022-09-20T16:39:42.013Z,60.28
2022-09-20T16:42:15.461Z,60.07
2022-09-20T16:44:45.847Z,59.87
2022-09-20T16:47:22.335Z,60.85
2022-09-20T16:49:54.376Z,61.02
2022-09-20T16:52:26.556Z,61.01
2022-09-20T16:54:56.250Z,61.70
2022-09-20T16:57:28.986Z,62.07
2022-09-20T16:59:59.100Z,62.72
2022-09-20T17:02:28.811Z,63.36
2022-09-20T17:04:58.524Z,64.15
2022-09-20T17:07:28.139Z,64.59
2022-09-20T17:10:01.451Z,65.16
2022-09-20T17:12:34.594Z,64.73
2022-09-20T17:15:04.243Z,64.45
2022-09-20T17:17:34.175Z,64.28
2022-09-20T17:20:05.976Z,64.46
2022-09-20T17:22:35.873Z,64.23
2022-09-20T17:25:05.987Z,64.90
2022-09-20T17:27:39.898Z,65.35
2022-09-20T17:30:12.007Z,65.62
2022-09-20T17:32:45.882Z,65.72
2022-09-20T17:35:16.652Z,66.21
2022-09-20T17:37:46.265Z,66.09
2022-09-20T17:40:16.493Z,66.39
2022-09-20T17:42:48.788Z,66.60
2022-09-20T17:45:18.907Z,67.06
2022-09-20T17:47:48.587Z,67.09
2022-09-20T17:50:18.210Z,67.38
2022-09-20T17:52:48.765Z,67.45
2022-09-20T17:55:18.465Z,66.96
2022-09-20T17:57:50.760Z,66.75
2022-09-20T18:00:20.501Z,67.39
2022-09-20T18:02:50.156Z,67.74
2022-09-20T18:05:19.833Z,68.22
2022-09-20T18:07:49.478Z,68.76
2022-09-20T18:10:19.231Z,69.47
2022-09-20T18:12:51.488Z,70.16
2022-09-20T18:15:21.141Z,70.34
2022-09-20T18:17:54.432Z,70.52
2022-09-20T18:20:24.202Z,71.29
2022-09-20T18:22:53.828Z,71.56
2022-09-20T18:25:24.225Z,72.03
2022-09-20T18:27:57.000Z,72.04
2022-09-20T18:30:26.687Z,72.83
2022-09-20T18:32:56.347Z,72.43
2022-09-20T18:35:26.064Z,73.22
2022-09-20T18:37:55.806Z,73.43
2022-09-20T18:40:25.570Z,73.72
2022-09-20T18:43:03.722Z,74.33
2022-09-20T18:45:34.988Z,74.77
2022-09-20T18:48:07.631Z,74.22
2022-09-20T18:50:37.384Z,75.09
2022-09-20T18:53:07.363Z,74.41
2022-09-20T18:55:37.626Z,75.09
2022-09-20T18:58:12.347Z,75.67
2022-09-20T19:00:42.506Z,76.18
2022-09-20T19:03:20.607Z,76.38
2022-09-20T19:05:54.557Z,76.01
2022-09-20T19:08:34.461Z,76.63
2022-09-20T19:11:07.700Z,76.55
2022-09-20T19:13:46.046Z,76.21
2022-09-20T19:16:22.101Z,77.22
2022-09-20T19:19:16.430Z,77.95
2022-09-20T19:21:57.750Z,77.10
2022-09-20T19:24:49.129Z,76.84
2022-09-20T19:27:19.261Z,77.15
2022-09-20T19:29:52.829Z,77.60
2022-09-20T19:32:26.354Z,77.06
2022-09-20T19:35:01.874Z,76.70
2022-09-20T19:37:39.899Z,77.51
2022-09-20T19:40:27.265Z,77.97
2022-09-20T19:43:13.326Z,78.41
2022-09-20T19:45:55.644Z,77.95
2022-09-20T19:48:33.398Z,77.94
2022-09-20T19:51:08.167Z,77.76
2022-09-20T19:53:39.435Z,77.75
2022-09-20T19:56:21.718Z,78.04
2022-09-20T19:58:53.233Z,77.89
2022-09-20T20:01:27.897Z,77.50
2022-09-20T20:03:58.394Z,77.47
2022-09-20T20:06:35.315Z,77.89
2022-09-20T20:09:12.252Z,78.75
2022-09-20T20:11:50.183Z,78.13
2022-09-20T20:14:27.852Z,78.53
2022-09-20T20:17:07.932Z,78.84
2022-09-20T20:19:53.933Z,78.44
2022-09-20T20:22:41.032Z,78.58
2022-09-20T20:25:26.486Z,79.35
2022-09-20T20:27:56.161Z,78.87
2022-09-20T20:30:25.901Z,78.41
2022-09-20T20:33:00.957Z,79.38
2022-09-20T20:35:30.623Z,79.12
2022-09-20T20:38:00.282Z,78.89
2022-09-20T20:40:30.130Z,79.42
2022-09-20T20:43:02.347Z,79.06
2022-09-20T20:45:32.516Z,78.94
2022-09-20T20:48:05.160Z,78.85
2022-09-20T20:50:35.520Z,79.33
2022-09-20T20:53:06.844Z,79.21
2022-09-20T20:55:36.592Z,79.57
2022-09-20T20:58:07.510Z,79.81
2022-09-20T21:00:37.150Z,80.25
2022-09-20T21:03:11.148Z,79.49
2022-09-20T21:05:40.844Z,80.51
2022-09-20T21:08:11.425Z,80.19
2022-09-20T21:10:41.142Z,81.15
2022-09-20T21:13:11.117Z,82.03
2022-09-20T21:15:41.703Z,81.74
2022-09-20T21:18:13.938Z,80.83
2022-09-20T21:20:43.545Z,81.34
2022-09-20T21:23:13.131Z,80.33
2022-09-20T21:25:42.743Z,80.26
2022-09-20T21:28:12.387Z,79.32
2022-09-20T21:30:42.028Z,79.98
2022-09-20T21:33:14.365Z,80.77
2022-09-20T21:35:43.938Z,80.29
2022-09-20T21:38:13.580Z,80.60
2022-09-20T21:40:43.464Z,80.80
2022-09-20T21:43:14.157Z,80.35
2022-09-20T21:45:45.437Z,79.19
2022-09-20T21:48:17.654Z,79.59
2022-09-20T21:50:47.660Z,79.49
2022-09-20T21:53:19.291Z,80.11
2022-09-20T21:55:48.971Z,79.61
2022-09-20T21:58:18.564Z,81.02
2022-09-20T22:00:59.159Z,82.69
2022-09-20T22:03:33.102Z,83.68
2022-09-20T22:06:11.142Z,83.00
2022-09-20T22:08:42.249Z,82.52
2022-09-20T22:11:14.909Z,83.90
2022-09-20T22:13:45.576Z,84.11
2022-09-20T22:16:18.962Z,84.29
2022-09-20T22:18:51.527Z,83.07
2022-09-20T22:21:23.892Z,83.07
2022-09-20T22:23:57.741Z,84.40
2022-09-20T22:26:30.254Z,84.12
2022-09-20T22:29:00.546Z,84.50
2022-09-20T22:31:32.168Z,83.94
2022-09-20T22:34:06.204Z,85.25
2022-09-20T22:36:38.544Z,86.18
2022-09-20T22:39:10.201Z,85.37
2022-09-20T22:41:41.345Z,83.98
2022-09-20T22:44:11.563Z,83.37
2022-09-20T22:46:41.649Z,81.79
2022-09-20T22:49:14.116Z,81.70
2022-09-20T22:51:43.865Z,85.97
2022-09-20T22:54:16.214Z,84.34
2022-09-20T22:56:45.861Z,85.49
2022-09-20T22:59:17.065Z,84.76
2022-09-20T23:01:48.835Z,83.41
2022-09-20T23:04:22.417Z,82.03
2022-09-20T23:06:55.162Z,83.69
2022-09-20T23:09:27.505Z,83.81
2022-09-20T23:11:57.182Z,83.17
2022-09-20T23:14:26.809Z,83.79
2022-09-20T23:16:56.490Z,83.65
2022-09-20T23:19:28.894Z,80.79
2022-09-20T23:21:58.570Z,80.82
2022-09-20T23:24:28.239Z,81.73
2022-09-20T23:26:57.904Z,83.04
2022-09-20T23:29:28.006Z,82.16
2022-09-20T23:31:57.752Z,81.22
2022-09-20T23:34:30.028Z,81.78
2022-09-20T23:36:59.700Z,82.18
2022-09-20T23:39:29.572Z,80.98
2022-09-20T23:41:59.165Z,80.93
2022-09-20T23:44:28.860Z,80.56
2022-09-20T23:46:58.530Z,80.18
2022-09-20T23:49:30.770Z,81.19
2022-09-20T23:52:00.463Z,81.47
2022-09-20T23:54:30.081Z,82.11
2022-09-20T23:56:59.703Z,81.32
2022-09-20T23:59:29.360Z,81.20
